Big Cabin, Oklahoma
Current Conditions -  °F | °C
As of 7:15 AM on Friday 31 Oct 2014 (Local Time) from KGCM Reporting Station
Clear Clear  
Wind Chill: 41°   Ceiling: Unl
Heat Index: 46°   Visibility: 10mi
Dew Point: 41°   Wind: 13mph
Humidity: 81%   Direction: 350°N
Pressure: 30.33"   Gusts: NA
Location:  36.54°N, 95.22°W
Report Text: KGCM 311215Z AUTO 35011KT 325V025 10SM CLR 08/05 A3033 RMK AO2
Loading
Personal Weather Stations






























Interactive Weather Map
Tropical Storm Tracking
New forecast layout! Learn more

10-Day Weather Forecast

Advertisements
Track Severe Weather on mobile